sensor_id;sensor_type;location;lat;lon;timestamp;P1;durP1;ratioP1;P2;durP2;ratioP2
12024;SDS011;6073;53.230;10.444;2022-08-19T00:02:14;12.05;;;10.85;;
12024;SDS011;6073;53.230;10.444;2022-08-19T00:04:40;19.17;;;12.43;;
12024;SDS011;6073;53.230;10.444;2022-08-19T00:07:05;12.18;;;10.68;;
12024;SDS011;6073;53.230;10.444;2022-08-19T00:09:32;14.80;;;11.30;;
12024;SDS011;6073;53.230;10.444;2022-08-19T00:11:58;16.35;;;12.65;;
12024;SDS011;6073;53.230;10.444;2022-08-19T00:14:25;17.70;;;11.52;;
12024;SDS011;6073;53.230;10.444;2022-08-19T00:16:52;13.15;;;11.18;;
12024;SDS011;6073;53.230;10.444;2022-08-19T00:19:19;14.98;;;11.05;;
12024;SDS011;6073;53.230;10.444;2022-08-19T00:21:45;14.93;;;12.57;;
12024;SDS011;6073;53.230;10.444;2022-08-19T00:24:11;15.32;;;11.65;;
12024;SDS011;6073;53.230;10.444;2022-08-19T00:26:41;15.75;;;12.27;;
12024;SDS011;6073;53.230;10.444;2022-08-19T00:29:11;18.40;;;12.63;;
12024;SDS011;6073;53.230;10.444;2022-08-19T00:31:39;14.80;;;12.43;;
12024;SDS011;6073;53.230;10.444;2022-08-19T00:34:06;14.73;;;12.18;;
12024;SDS011;6073;53.230;10.444;2022-08-19T00:36:32;14.20;;;11.18;;
12024;SDS011;6073;53.230;10.444;2022-08-19T00:38:58;13.63;;;10.10;;
12024;SDS011;6073;53.230;10.444;2022-08-19T00:41:24;13.10;;;11.40;;
12024;SDS011;6073;53.230;10.444;2022-08-19T00:43:57;13.05;;;11.32;;
12024;SDS011;6073;53.230;10.444;2022-08-19T00:46:24;14.15;;;10.80;;
12024;SDS011;6073;53.230;10.444;2022-08-19T00:48:49;14.00;;;10.48;;
12024;SDS011;6073;53.230;10.444;2022-08-19T00:51:15;11.55;;;9.60;;
12024;SDS011;6073;53.230;10.444;2022-08-19T00:53:41;13.13;;;10.60;;
12024;SDS011;6073;53.230;10.444;2022-08-19T00:56:09;13.70;;;10.13;;
12024;SDS011;6073;53.230;10.444;2022-08-19T00:58:35;12.68;;;10.55;;
12024;SDS011;6073;53.230;10.444;2022-08-19T01:01:03;12.15;;;10.75;;
12024;SDS011;6073;53.230;10.444;2022-08-19T01:03:29;11.70;;;10.35;;
12024;SDS011;6073;53.230;10.444;2022-08-19T01:05:55;12.82;;;10.30;;
12024;SDS011;6073;53.230;10.444;2022-08-19T01:08:24;15.15;;;10.27;;
12024;SDS011;6073;53.230;10.444;2022-08-19T01:10:54;14.02;;;10.63;;
12024;SDS011;6073;53.230;10.444;2022-08-19T01:13:28;15.85;;;11.10;;
12024;SDS011;6073;53.230;10.444;2022-08-19T01:16:07;15.40;;;12.10;;
12024;SDS011;6073;53.230;10.444;2022-08-19T01:18:38;13.52;;;10.70;;
12024;SDS011;6073;53.230;10.444;2022-08-19T01:21:08;12.32;;;10.38;;
12024;SDS011;6073;53.230;10.444;2022-08-19T01:23:43;13.75;;;11.27;;
12024;SDS011;6073;53.230;10.444;2022-08-19T01:26:11;15.13;;;11.73;;
12024;SDS011;6073;53.230;10.444;2022-08-19T01:28:39;14.32;;;11.40;;
12024;SDS011;6073;53.230;10.444;2022-08-19T01:31:06;15.35;;;10.98;;
12024;SDS011;6073;53.230;10.444;2022-08-19T01:33:39;12.50;;;11.35;;
12024;SDS011;6073;53.230;10.444;2022-08-19T01:36:06;14.98;;;10.20;;
12024;SDS011;6073;53.230;10.444;2022-08-19T01:38:39;11.85;;;10.40;;
12024;SDS011;6073;53.230;10.444;2022-08-19T01:41:08;13.10;;;11.07;;
12024;SDS011;6073;53.230;10.444;2022-08-19T01:43:35;13.82;;;9.98;;
12024;SDS011;6073;53.230;10.444;2022-08-19T01:46:02;14.32;;;11.48;;
12024;SDS011;6073;53.230;10.444;2022-08-19T01:48:32;12.00;;;9.38;;
12024;SDS011;6073;53.230;10.444;2022-08-19T01:51:09;10.85;;;9.15;;
12024;SDS011;6073;53.230;10.444;2022-08-19T01:53:38;12.93;;;11.15;;
12024;SDS011;6073;53.230;10.444;2022-08-19T01:56:05;11.57;;;9.88;;
12024;SDS011;6073;53.230;10.444;2022-08-19T01:58:32;15.40;;;11.85;;
12024;SDS011;6073;53.230;10.444;2022-08-19T02:01:06;14.60;;;12.05;;
12024;SDS011;6073;53.230;10.444;2022-08-19T02:03:33;12.18;;;10.95;;
12024;SDS011;6073;53.230;10.444;2022-08-19T02:06:02;12.75;;;11.23;;
12024;SDS011;6073;53.230;10.444;2022-08-19T02:08:31;14.57;;;11.38;;
12024;SDS011;6073;53.230;10.444;2022-08-19T02:11:00;12.82;;;10.98;;
12024;SDS011;6073;53.230;10.444;2022-08-19T02:13:26;13.05;;;10.70;;
12024;SDS011;6073;53.230;10.444;2022-08-19T02:15:52;17.25;;;12.10;;
12024;SDS011;6073;53.230;10.444;2022-08-19T02:18:17;12.55;;;11.27;;
12024;SDS011;6073;53.230;10.444;2022-08-19T02:20:43;11.38;;;9.70;;
12024;SDS011;6073;53.230;10.444;2022-08-19T02:23:10;15.02;;;12.50;;
12024;SDS011;6073;53.230;10.444;2022-08-19T02:25:40;10.77;;;9.68;;
12024;SDS011;6073;53.230;10.444;2022-08-19T02:28:06;13.80;;;10.80;;
12024;SDS011;6073;53.230;10.444;2022-08-19T02:30:40;10.98;;;9.50;;
12024;SDS011;6073;53.230;10.444;2022-08-19T02:33:06;13.45;;;10.95;;
12024;SDS011;6073;53.230;10.444;2022-08-19T02:35:32;16.38;;;10.40;;
12024;SDS011;6073;53.230;10.444;2022-08-19T02:38:00;12.50;;;10.02;;
12024;SDS011;6073;53.230;10.444;2022-08-19T02:40:48;12.13;;;10.13;;
12024;SDS011;6073;53.230;10.444;2022-08-19T02:43:16;12.05;;;10.77;;
12024;SDS011;6073;53.230;10.444;2022-08-19T02:45:45;11.93;;;9.43;;
12024;SDS011;6073;53.230;10.444;2022-08-19T02:48:17;13.23;;;11.00;;
12024;SDS011;6073;53.230;10.444;2022-08-19T02:50:48;14.50;;;10.55;;
12024;SDS011;6073;53.230;10.444;2022-08-19T02:53:23;13.95;;;10.52;;
12024;SDS011;6073;53.230;10.444;2022-08-19T02:55:53;11.32;;;9.73;;
12024;SDS011;6073;53.230;10.444;2022-08-19T02:58:19;12.82;;;10.27;;
12024;SDS011;6073;53.230;10.444;2022-08-19T03:00:50;13.70;;;10.95;;
12024;SDS011;6073;53.230;10.444;2022-08-19T03:03:18;11.00;;;9.90;;
12024;SDS011;6073;53.230;10.444;2022-08-19T03:05:47;11.88;;;9.93;;
12024;SDS011;6073;53.230;10.444;2022-08-19T03:08:13;11.82;;;9.57;;
12024;SDS011;6073;53.230;10.444;2022-08-19T03:10:40;14.18;;;11.73;;
12024;SDS011;6073;53.230;10.444;2022-08-19T03:13:13;13.38;;;10.65;;
12024;SDS011;6073;53.230;10.444;2022-08-19T03:15:48;13.90;;;11.15;;
12024;SDS011;6073;53.230;10.444;2022-08-19T03:18:14;14.65;;;11.07;;
12024;SDS011;6073;53.230;10.444;2022-08-19T03:20:44;16.40;;;13.18;;
12024;SDS011;6073;53.230;10.444;2022-08-19T03:23:14;12.02;;;10.25;;
12024;SDS011;6073;53.230;10.444;2022-08-19T03:25:44;16.27;;;11.50;;
12024;SDS011;6073;53.230;10.444;2022-08-19T03:28:12;16.63;;;10.63;;
12024;SDS011;6073;53.230;10.444;2022-08-19T03:30:40;14.82;;;11.77;;
12024;SDS011;6073;53.230;10.444;2022-08-19T03:33:07;17.42;;;13.63;;
12024;SDS011;6073;53.230;10.444;2022-08-19T03:35:34;19.10;;;13.77;;
12024;SDS011;6073;53.230;10.444;2022-08-19T03:38:23;17.25;;;11.82;;
12024;SDS011;6073;53.230;10.444;2022-08-19T03:40:55;19.40;;;12.43;;
12024;SDS011;6073;53.230;10.444;2022-08-19T03:43:20;16.60;;;12.35;;
12024;SDS011;6073;53.230;10.444;2022-08-19T03:45:49;17.17;;;12.45;;
12024;SDS011;6073;53.230;10.444;2022-08-19T03:48:34;14.60;;;12.40;;
12024;SDS011;6073;53.230;10.444;2022-08-19T03:51:02;14.95;;;11.50;;
12024;SDS011;6073;53.230;10.444;2022-08-19T03:53:28;13.32;;;10.50;;
12024;SDS011;6073;53.230;10.444;2022-08-19T03:55:56;14.73;;;12.23;;
12024;SDS011;6073;53.230;10.444;2022-08-19T03:58:24;15.90;;;12.70;;
12024;SDS011;6073;53.230;10.444;2022-08-19T04:00:53;15.10;;;11.60;;
12024;SDS011;6073;53.230;10.444;2022-08-19T04:03:25;16.58;;;12.65;;
12024;SDS011;6073;53.230;10.444;2022-08-19T04:05:54;16.35;;;11.65;;
12024;SDS011;6073;53.230;10.444;2022-08-19T04:08:22;17.80;;;13.55;;
12024;SDS011;6073;53.230;10.444;2022-08-19T04:10:54;14.95;;;12.57;;
12024;SDS011;6073;53.230;10.444;2022-08-19T04:13:20;17.30;;;12.13;;
12024;SDS011;6073;53.230;10.444;2022-08-19T04:15:48;20.17;;;14.93;;
12024;SDS011;6073;53.230;10.444;2022-08-19T04:18:14;17.02;;;13.40;;
12024;SDS011;6073;53.230;10.444;2022-08-19T04:20:43;19.92;;;13.70;;
12024;SDS011;6073;53.230;10.444;2022-08-19T04:23:11;15.82;;;12.88;;
12024;SDS011;6073;53.230;10.444;2022-08-19T04:25:39;18.38;;;13.38;;
12024;SDS011;6073;53.230;10.444;2022-08-19T04:28:07;16.33;;;12.65;;
12024;SDS011;6073;53.230;10.444;2022-08-19T04:30:46;18.75;;;13.60;;
12024;SDS011;6073;53.230;10.444;2022-08-19T04:33:20;20.20;;;13.15;;
12024;SDS011;6073;53.230;10.444;2022-08-19T04:35:50;21.52;;;13.63;;
12024;SDS011;6073;53.230;10.444;2022-08-19T04:38:21;14.55;;;12.25;;
12024;SDS011;6073;53.230;10.444;2022-08-19T04:41:14;18.45;;;14.20;;
12024;SDS011;6073;53.230;10.444;2022-08-19T04:43:57;18.45;;;13.82;;
12024;SDS011;6073;53.230;10.444;2022-08-19T04:46:22;19.13;;;13.52;;
12024;SDS011;6073;53.230;10.444;2022-08-19T04:48:48;27.98;;;14.77;;
12024;SDS011;6073;53.230;10.444;2022-08-19T04:51:14;18.65;;;13.23;;
12024;SDS011;6073;53.230;10.444;2022-08-19T04:53:40;19.58;;;12.48;;
12024;SDS011;6073;53.230;10.444;2022-08-19T04:56:13;25.13;;;16.35;;
12024;SDS011;6073;53.230;10.444;2022-08-19T04:58:42;21.92;;;13.90;;
12024;SDS011;6073;53.230;10.444;2022-08-19T05:01:11;19.08;;;13.27;;
12024;SDS011;6073;53.230;10.444;2022-08-19T05:03:48;19.98;;;13.15;;
12024;SDS011;6073;53.230;10.444;2022-08-19T05:06:18;20.50;;;14.75;;
12024;SDS011;6073;53.230;10.444;2022-08-19T05:08:49;21.55;;;14.73;;
12024;SDS011;6073;53.230;10.444;2022-08-19T05:11:19;19.27;;;13.25;;
12024;SDS011;6073;53.230;10.444;2022-08-19T05:13:53;20.70;;;12.18;;
12024;SDS011;6073;53.230;10.444;2022-08-19T05:16:20;21.52;;;14.20;;
12024;SDS011;6073;53.230;10.444;2022-08-19T05:18:46;23.83;;;15.45;;
12024;SDS011;6073;53.230;10.444;2022-08-19T05:21:31;21.42;;;14.60;;
12024;SDS011;6073;53.230;10.444;2022-08-19T05:24:16;20.27;;;14.98;;
12024;SDS011;6073;53.230;10.444;2022-08-19T05:26:43;20.67;;;13.57;;
12024;SDS011;6073;53.230;10.444;2022-08-19T05:29:11;18.58;;;13.55;;
12024;SDS011;6073;53.230;10.444;2022-08-19T05:31:38;19.83;;;14.30;;
12024;SDS011;6073;53.230;10.444;2022-08-19T05:34:05;19.67;;;14.82;;
12024;SDS011;6073;53.230;10.444;2022-08-19T05:36:34;24.10;;;15.20;;
12024;SDS011;6073;53.230;10.444;2022-08-19T05:39:11;21.02;;;13.35;;
12024;SDS011;6073;53.230;10.444;2022-08-19T05:41:47;18.85;;;13.80;;
12024;SDS011;6073;53.230;10.444;2022-08-19T05:44:23;24.60;;;15.02;;
12024;SDS011;6073;53.230;10.444;2022-08-19T05:46:49;22.75;;;15.20;;
12024;SDS011;6073;53.230;10.444;2022-08-19T05:49:19;23.67;;;14.48;;
12024;SDS011;6073;53.230;10.444;2022-08-19T05:51:46;23.50;;;16.20;;
12024;SDS011;6073;53.230;10.444;2022-08-19T05:54:12;17.30;;;13.57;;
12024;SDS011;6073;53.230;10.444;2022-08-19T05:56:39;19.25;;;14.32;;
12024;SDS011;6073;53.230;10.444;2022-08-19T05:59:05;21.60;;;14.18;;
12024;SDS011;6073;53.230;10.444;2022-08-19T06:01:35;20.67;;;14.18;;
12024;SDS011;6073;53.230;10.444;2022-08-19T06:04:02;24.42;;;16.15;;
12024;SDS011;6073;53.230;10.444;2022-08-19T06:06:29;22.25;;;15.38;;
12024;SDS011;6073;53.230;10.444;2022-08-19T06:08:54;25.40;;;17.52;;
12024;SDS011;6073;53.230;10.444;2022-08-19T06:11:23;25.30;;;16.88;;
12024;SDS011;6073;53.230;10.444;2022-08-19T06:13:51;24.45;;;16.13;;
12024;SDS011;6073;53.230;10.444;2022-08-19T06:16:21;27.30;;;17.20;;
12024;SDS011;6073;53.230;10.444;2022-08-19T06:18:54;29.98;;;17.77;;
12024;SDS011;6073;53.230;10.444;2022-08-19T06:21:25;30.15;;;19.60;;
12024;SDS011;6073;53.230;10.444;2022-08-19T06:23:53;28.40;;;19.63;;
12024;SDS011;6073;53.230;10.444;2022-08-19T06:26:20;28.15;;;19.55;;
12024;SDS011;6073;53.230;10.444;2022-08-19T06:28:53;31.38;;;22.25;;
12024;SDS011;6073;53.230;10.444;2022-08-19T06:31:20;31.73;;;20.23;;
12024;SDS011;6073;53.230;10.444;2022-08-19T06:33:48;33.10;;;20.85;;
12024;SDS011;6073;53.230;10.444;2022-08-19T06:36:22;31.90;;;20.40;;
12024;SDS011;6073;53.230;10.444;2022-08-19T06:39:00;29.00;;;20.70;;
12024;SDS011;6073;53.230;10.444;2022-08-19T06:41:27;26.92;;;19.88;;
12024;SDS011;6073;53.230;10.444;2022-08-19T06:43:54;31.80;;;21.00;;
12024;SDS011;6073;53.230;10.444;2022-08-19T06:46:20;43.50;;;26.90;;
12024;SDS011;6073;53.230;10.444;2022-08-19T06:48:47;36.95;;;24.80;;
12024;SDS011;6073;53.230;10.444;2022-08-19T06:51:18;46.90;;;27.30;;
12024;SDS011;6073;53.230;10.444;2022-08-19T06:53:53;44.55;;;30.25;;
12024;SDS011;6073;53.230;10.444;2022-08-19T06:56:24;42.72;;;27.92;;
12024;SDS011;6073;53.230;10.444;2022-08-19T06:59:02;38.05;;;27.33;;
12024;SDS011;6073;53.230;10.444;2022-08-19T07:01:36;40.25;;;27.52;;
12024;SDS011;6073;53.230;10.444;2022-08-19T07:04:04;42.20;;;29.27;;
12024;SDS011;6073;53.230;10.444;2022-08-19T07:06:33;40.10;;;29.25;;
12024;SDS011;6073;53.230;10.444;2022-08-19T07:09:00;39.20;;;27.77;;
12024;SDS011;6073;53.230;10.444;2022-08-19T07:11:27;36.75;;;27.05;;
12024;SDS011;6073;53.230;10.444;2022-08-19T07:13:52;44.15;;;28.50;;
12024;SDS011;6073;53.230;10.444;2022-08-19T07:16:20;44.05;;;28.75;;
12024;SDS011;6073;53.230;10.444;2022-08-19T07:18:47;40.90;;;27.02;;
12024;SDS011;6073;53.230;10.444;2022-08-19T07:21:25;35.20;;;25.17;;
12024;SDS011;6073;53.230;10.444;2022-08-19T07:23:55;36.75;;;27.33;;
12024;SDS011;6073;53.230;10.444;2022-08-19T07:26:24;37.40;;;25.73;;
12024;SDS011;6073;53.230;10.444;2022-08-19T07:28:55;40.92;;;27.55;;
12024;SDS011;6073;53.230;10.444;2022-08-19T07:31:23;43.35;;;28.65;;
12024;SDS011;6073;53.230;10.444;2022-08-19T07:33:51;45.38;;;28.98;;
12024;SDS011;6073;53.230;10.444;2022-08-19T07:36:19;43.40;;;29.23;;
12024;SDS011;6073;53.230;10.444;2022-08-19T07:38:56;43.95;;;28.83;;
12024;SDS011;6073;53.230;10.444;2022-08-19T07:41:23;42.97;;;28.02;;
12024;SDS011;6073;53.230;10.444;2022-08-19T07:43:50;48.75;;;31.58;;
12024;SDS011;6073;53.230;10.444;2022-08-19T07:46:16;42.90;;;30.02;;
12024;SDS011;6073;53.230;10.444;2022-08-19T07:48:43;51.92;;;32.03;;
12024;SDS011;6073;53.230;10.444;2022-08-19T07:51:14;45.78;;;29.67;;
12024;SDS011;6073;53.230;10.444;2022-08-19T07:53:43;51.33;;;33.25;;
12024;SDS011;6073;53.230;10.444;2022-08-19T07:56:10;45.72;;;30.45;;
12024;SDS011;6073;53.230;10.444;2022-08-19T07:58:41;44.80;;;32.70;;
12024;SDS011;6073;53.230;10.444;2022-08-19T08:01:12;49.08;;;31.58;;
12024;SDS011;6073;53.230;10.444;2022-08-19T08:03:41;55.53;;;33.95;;
12024;SDS011;6073;53.230;10.444;2022-08-19T08:06:26;49.20;;;31.58;;
12024;SDS011;6073;53.230;10.444;2022-08-19T08:09:11;63.05;;;37.63;;
12024;SDS011;6073;53.230;10.444;2022-08-19T08:11:48;64.65;;;36.63;;
12024;SDS011;6073;53.230;10.444;2022-08-19T08:14:22;54.00;;;34.03;;
12024;SDS011;6073;53.230;10.444;2022-08-19T08:16:49;63.47;;;36.90;;
12024;SDS011;6073;53.230;10.444;2022-08-19T08:19:16;56.97;;;34.90;;
12024;SDS011;6073;53.230;10.444;2022-08-19T08:21:47;64.82;;;38.20;;
12024;SDS011;6073;53.230;10.444;2022-08-19T08:24:13;55.67;;;33.92;;
12024;SDS011;6073;53.230;10.444;2022-08-19T08:26:39;54.88;;;34.75;;
12024;SDS011;6073;53.230;10.444;2022-08-19T08:29:05;52.90;;;33.30;;
12024;SDS011;6073;53.230;10.444;2022-08-19T08:31:35;59.13;;;35.15;;
12024;SDS011;6073;53.230;10.444;2022-08-19T08:34:07;61.85;;;35.97;;
12024;SDS011;6073;53.230;10.444;2022-08-19T08:36:44;59.85;;;36.95;;
12024;SDS011;6073;53.230;10.444;2022-08-19T08:39:16;64.70;;;37.10;;
12024;SDS011;6073;53.230;10.444;2022-08-19T08:41:50;67.85;;;38.53;;
12024;SDS011;6073;53.230;10.444;2022-08-19T08:47:01;70.75;;;39.47;;
12024;SDS011;6073;53.230;10.444;2022-08-19T08:49:43;67.97;;;38.88;;
12024;SDS011;6073;53.230;10.444;2022-08-19T08:55:00;57.17;;;34.22;;
12024;SDS011;6073;53.230;10.444;2022-08-19T08:57:35;56.55;;;36.63;;
12024;SDS011;6073;53.230;10.444;2022-08-19T09:00:08;61.25;;;35.00;;
12024;SDS011;6073;53.230;10.444;2022-08-19T09:02:41;59.17;;;35.08;;
12024;SDS011;6073;53.230;10.444;2022-08-19T09:05:08;63.28;;;35.47;;
12024;SDS011;6073;53.230;10.444;2022-08-19T09:10:16;51.22;;;33.28;;
12024;SDS011;6073;53.230;10.444;2022-08-19T09:15:57;53.70;;;32.38;;
12024;SDS011;6073;53.230;10.444;2022-08-19T09:18:41;55.33;;;33.65;;
12024;SDS011;6073;53.230;10.444;2022-08-19T09:21:07;53.80;;;34.28;;
12024;SDS011;6073;53.230;10.444;2022-08-19T09:23:34;52.10;;;31.73;;
12024;SDS011;6073;53.230;10.444;2022-08-19T09:26:00;52.78;;;32.95;;
12024;SDS011;6073;53.230;10.444;2022-08-19T09:28:26;51.97;;;32.47;;
12024;SDS011;6073;53.230;10.444;2022-08-19T09:30:52;53.88;;;34.03;;
12024;SDS011;6073;53.230;10.444;2022-08-19T09:33:18;46.55;;;30.85;;
12024;SDS011;6073;53.230;10.444;2022-08-19T09:35:44;50.90;;;30.58;;
12024;SDS011;6073;53.230;10.444;2022-08-19T09:38:11;51.03;;;31.92;;
12024;SDS011;6073;53.230;10.444;2022-08-19T09:40:36;48.75;;;31.65;;
12024;SDS011;6073;53.230;10.444;2022-08-19T09:43:02;56.70;;;32.60;;
12024;SDS011;6073;53.230;10.444;2022-08-19T09:45:27;50.60;;;31.60;;
12024;SDS011;6073;53.230;10.444;2022-08-19T09:47:53;46.72;;;30.13;;
12024;SDS011;6073;53.230;10.444;2022-08-19T09:50:19;51.40;;;29.80;;
12024;SDS011;6073;53.230;10.444;2022-08-19T09:52:45;45.40;;;28.77;;
12024;SDS011;6073;53.230;10.444;2022-08-19T09:55:11;46.20;;;29.40;;
12024;SDS011;6073;53.230;10.444;2022-08-19T09:57:37;45.50;;;28.38;;
12024;SDS011;6073;53.230;10.444;2022-08-19T10:00:05;43.63;;;28.30;;
12024;SDS011;6073;53.230;10.444;2022-08-19T10:02:32;46.70;;;28.27;;
12024;SDS011;6073;53.230;10.444;2022-08-19T10:04:58;39.97;;;25.55;;
12024;SDS011;6073;53.230;10.444;2022-08-19T10:07:42;43.00;;;28.08;;
12024;SDS011;6073;53.230;10.444;2022-08-19T10:10:08;44.97;;;28.02;;
12024;SDS011;6073;53.230;10.444;2022-08-19T10:12:34;42.10;;;27.42;;
12024;SDS011;6073;53.230;10.444;2022-08-19T10:15:01;45.60;;;28.10;;
12024;SDS011;6073;53.230;10.444;2022-08-19T10:17:27;42.60;;;26.80;;
12024;SDS011;6073;53.230;10.444;2022-08-19T10:19:53;43.65;;;30.08;;
12024;SDS011;6073;53.230;10.444;2022-08-19T10:22:19;38.92;;;27.50;;
12024;SDS011;6073;53.230;10.444;2022-08-19T10:24:45;42.10;;;28.38;;
12024;SDS011;6073;53.230;10.444;2022-08-19T10:27:11;41.97;;;27.95;;
12024;SDS011;6073;53.230;10.444;2022-08-19T10:29:39;50.80;;;29.67;;
12024;SDS011;6073;53.230;10.444;2022-08-19T10:32:06;49.40;;;28.88;;
12024;SDS011;6073;53.230;10.444;2022-08-19T10:34:34;37.90;;;26.67;;
12024;SDS011;6073;53.230;10.444;2022-08-19T10:37:02;41.90;;;28.38;;
12024;SDS011;6073;53.230;10.444;2022-08-19T10:39:31;45.33;;;28.38;;
12024;SDS011;6073;53.230;10.444;2022-08-19T10:41:58;43.70;;;27.65;;
12024;SDS011;6073;53.230;10.444;2022-08-19T10:44:24;45.90;;;28.92;;
12024;SDS011;6073;53.230;10.444;2022-08-19T10:46:50;46.67;;;28.70;;
12024;SDS011;6073;53.230;10.444;2022-08-19T10:49:16;41.30;;;26.58;;
12024;SDS011;6073;53.230;10.444;2022-08-19T10:51:43;43.15;;;28.05;;
12024;SDS011;6073;53.230;10.444;2022-08-19T10:54:28;46.53;;;28.45;;
12024;SDS011;6073;53.230;10.444;2022-08-19T10:57:14;51.35;;;31.67;;
12024;SDS011;6073;53.230;10.444;2022-08-19T10:59:41;48.45;;;29.02;;
12024;SDS011;6073;53.230;10.444;2022-08-19T11:02:08;49.00;;;30.92;;
12024;SDS011;6073;53.230;10.444;2022-08-19T11:04:36;46.75;;;29.60;;
12024;SDS011;6073;53.230;10.444;2022-08-19T11:07:03;43.38;;;29.45;;
12024;SDS011;6073;53.230;10.444;2022-08-19T11:09:29;43.70;;;30.00;;
12024;SDS011;6073;53.230;10.444;2022-08-19T11:11:56;44.72;;;30.83;;
12024;SDS011;6073;53.230;10.444;2022-08-19T11:14:22;46.38;;;30.70;;
12024;SDS011;6073;53.230;10.444;2022-08-19T11:16:48;45.63;;;29.85;;
12024;SDS011;6073;53.230;10.444;2022-08-19T11:19:15;50.80;;;31.50;;
12024;SDS011;6073;53.230;10.444;2022-08-19T11:21:44;45.40;;;30.95;;
12024;SDS011;6073;53.230;10.444;2022-08-19T11:24:13;52.30;;;33.40;;
12024;SDS011;6073;53.230;10.444;2022-08-19T11:26:41;49.58;;;33.75;;
12024;SDS011;6073;53.230;10.444;2022-08-19T11:29:08;50.58;;;32.28;;
12024;SDS011;6073;53.230;10.444;2022-08-19T11:31:36;48.95;;;33.45;;
12024;SDS011;6073;53.230;10.444;2022-08-19T11:34:04;47.47;;;31.27;;
12024;SDS011;6073;53.230;10.444;2022-08-19T11:36:32;46.55;;;31.30;;
12024;SDS011;6073;53.230;10.444;2022-08-19T11:38:59;49.42;;;32.13;;
12024;SDS011;6073;53.230;10.444;2022-08-19T11:41:26;47.63;;;33.13;;
12024;SDS011;6073;53.230;10.444;2022-08-19T11:43:52;47.80;;;31.35;;
12024;SDS011;6073;53.230;10.444;2022-08-19T11:46:21;44.88;;;31.30;;
12024;SDS011;6073;53.230;10.444;2022-08-19T11:48:48;41.72;;;30.33;;
12024;SDS011;6073;53.230;10.444;2022-08-19T11:51:16;46.65;;;31.45;;
12024;SDS011;6073;53.230;10.444;2022-08-19T11:53:44;46.83;;;30.35;;
12024;SDS011;6073;53.230;10.444;2022-08-19T11:56:10;46.67;;;32.72;;
12024;SDS011;6073;53.230;10.444;2022-08-19T11:58:36;37.13;;;27.50;;
12024;SDS011;6073;53.230;10.444;2022-08-19T12:01:07;48.40;;;31.55;;
12024;SDS011;6073;53.230;10.444;2022-08-19T12:03:34;41.42;;;30.70;;
12024;SDS011;6073;53.230;10.444;2022-08-19T12:06:07;44.53;;;32.58;;
12024;SDS011;6073;53.230;10.444;2022-08-19T12:08:34;46.00;;;32.78;;
12024;SDS011;6073;53.230;10.444;2022-08-19T12:11:00;44.75;;;32.42;;
12024;SDS011;6073;53.230;10.444;2022-08-19T12:13:27;49.28;;;34.53;;
12024;SDS011;6073;53.230;10.444;2022-08-19T12:15:53;43.42;;;32.17;;
12024;SDS011;6073;53.230;10.444;2022-08-19T12:18:19;45.17;;;33.42;;
12024;SDS011;6073;53.230;10.444;2022-08-19T12:20:45;47.78;;;33.88;;
12024;SDS011;6073;53.230;10.444;2022-08-19T12:23:11;43.45;;;34.55;;
12024;SDS011;6073;53.230;10.444;2022-08-19T12:25:37;44.95;;;34.85;;
12024;SDS011;6073;53.230;10.444;2022-08-19T12:28:13;42.78;;;33.10;;
12024;SDS011;6073;53.230;10.444;2022-08-19T12:30:38;44.13;;;33.78;;
12024;SDS011;6073;53.230;10.444;2022-08-19T12:33:04;45.55;;;35.13;;
12024;SDS011;6073;53.230;10.444;2022-08-19T12:35:29;43.47;;;34.53;;
12024;SDS011;6073;53.230;10.444;2022-08-19T12:37:55;49.35;;;36.10;;
12024;SDS011;6073;53.230;10.444;2022-08-19T12:40:21;37.75;;;30.73;;
12024;SDS011;6073;53.230;10.444;2022-08-19T12:42:46;38.45;;;29.65;;
12024;SDS011;6073;53.230;10.444;2022-08-19T12:45:14;39.38;;;32.42;;
12024;SDS011;6073;53.230;10.444;2022-08-19T12:47:40;43.42;;;34.25;;
12024;SDS011;6073;53.230;10.444;2022-08-19T12:50:06;37.80;;;31.75;;
12024;SDS011;6073;53.230;10.444;2022-08-19T12:52:34;40.50;;;33.22;;
12024;SDS011;6073;53.230;10.444;2022-08-19T12:55:04;35.70;;;31.35;;
12024;SDS011;6073;53.230;10.444;2022-08-19T12:57:30;41.50;;;35.00;;
12024;SDS011;6073;53.230;10.444;2022-08-19T12:59:59;44.13;;;35.20;;
12024;SDS011;6073;53.230;10.444;2022-08-19T13:02:35;42.70;;;36.28;;
12024;SDS011;6073;53.230;10.444;2022-08-19T13:05:02;39.15;;;34.80;;
12024;SDS011;6073;53.230;10.444;2022-08-19T13:07:29;42.47;;;34.88;;
12024;SDS011;6073;53.230;10.444;2022-08-19T13:09:56;41.95;;;34.53;;
12024;SDS011;6073;53.230;10.444;2022-08-19T13:12:21;40.03;;;33.90;;
12024;SDS011;6073;53.230;10.444;2022-08-19T13:14:49;37.67;;;33.17;;
12024;SDS011;6073;53.230;10.444;2022-08-19T13:17:15;36.50;;;31.65;;
12024;SDS011;6073;53.230;10.444;2022-08-19T13:19:41;35.30;;;30.42;;
12024;SDS011;6073;53.230;10.444;2022-08-19T13:22:07;32.65;;;28.33;;
12024;SDS011;6073;53.230;10.444;2022-08-19T13:24:32;34.00;;;30.33;;
12024;SDS011;6073;53.230;10.444;2022-08-19T13:26:59;34.00;;;28.73;;
12024;SDS011;6073;53.230;10.444;2022-08-19T13:29:25;35.40;;;28.70;;
12024;SDS011;6073;53.230;10.444;2022-08-19T13:32:09;32.90;;;28.10;;
12024;SDS011;6073;53.230;10.444;2022-08-19T13:34:53;29.83;;;26.48;;
12024;SDS011;6073;53.230;10.444;2022-08-19T13:37:18;31.75;;;27.60;;
12024;SDS011;6073;53.230;10.444;2022-08-19T13:40:04;33.10;;;28.65;;
12024;SDS011;6073;53.230;10.444;2022-08-19T13:42:30;32.83;;;28.27;;
12024;SDS011;6073;53.230;10.444;2022-08-19T13:44:57;34.03;;;30.42;;
12024;SDS011;6073;53.230;10.444;2022-08-19T13:47:23;40.30;;;30.77;;
12024;SDS011;6073;53.230;10.444;2022-08-19T13:49:49;32.13;;;27.80;;
12024;SDS011;6073;53.230;10.444;2022-08-19T13:52:15;33.63;;;29.90;;
12024;SDS011;6073;53.230;10.444;2022-08-19T13:54:40;30.65;;;27.35;;
12024;SDS011;6073;53.230;10.444;2022-08-19T13:57:06;30.98;;;27.35;;
12024;SDS011;6073;53.230;10.444;2022-08-19T13:59:31;25.90;;;23.13;;
12024;SDS011;6073;53.230;10.444;2022-08-19T14:01:58;29.48;;;26.33;;
12024;SDS011;6073;53.230;10.444;2022-08-19T14:04:24;27.25;;;24.38;;
12024;SDS011;6073;53.230;10.444;2022-08-19T14:06:50;28.98;;;25.33;;
12024;SDS011;6073;53.230;10.444;2022-08-19T14:09:15;24.23;;;21.38;;
12024;SDS011;6073;53.230;10.444;2022-08-19T14:11:41;30.58;;;26.85;;
12024;SDS011;6073;53.230;10.444;2022-08-19T14:14:06;24.27;;;21.63;;
12024;SDS011;6073;53.230;10.444;2022-08-19T14:16:32;28.27;;;24.17;;
12024;SDS011;6073;53.230;10.444;2022-08-19T14:18:57;22.77;;;20.30;;
12024;SDS011;6073;53.230;10.444;2022-08-19T14:21:23;22.67;;;20.15;;
12024;SDS011;6073;53.230;10.444;2022-08-19T14:23:50;25.83;;;23.02;;
12024;SDS011;6073;53.230;10.444;2022-08-19T14:26:16;26.55;;;21.63;;
12024;SDS011;6073;53.230;10.444;2022-08-19T14:28:44;18.77;;;16.80;;
12024;SDS011;6073;53.230;10.444;2022-08-19T14:31:14;22.95;;;19.20;;
12024;SDS011;6073;53.230;10.444;2022-08-19T14:33:44;22.10;;;19.80;;
12024;SDS011;6073;53.230;10.444;2022-08-19T14:36:10;26.58;;;23.05;;
12024;SDS011;6073;53.230;10.444;2022-08-19T14:38:36;27.10;;;22.77;;
12024;SDS011;6073;53.230;10.444;2022-08-19T14:41:06;24.92;;;20.98;;
12024;SDS011;6073;53.230;10.444;2022-08-19T14:43:44;25.80;;;22.95;;